createdAt,value
2023-04-17T00:04:14.276Z,29.71
2023-04-17T00:09:17.458Z,29.55
2023-04-17T00:14:19.591Z,29.31
2023-04-17T00:19:21.858Z,29.98
2023-04-17T00:24:24.037Z,28.73
2023-04-17T00:29:26.012Z,28.93
2023-04-17T00:34:28.370Z,29.68
2023-04-17T00:39:32.884Z,29.84
2023-04-17T00:44:34.967Z,30.25
2023-04-17T00:49:39.132Z,30.33
2023-04-17T00:54:42.772Z,30.21
2023-04-17T00:59:46.985Z,29.94
2023-04-17T01:04:56.366Z,30.17
2023-04-17T01:10:03.814Z,30.26
2023-04-17T01:15:07.051Z,31.11
2023-04-17T01:20:12.574Z,31.34
2023-04-17T01:25:22.571Z,31.53
2023-04-17T01:30:24.812Z,32.15
2023-04-17T01:35:36.320Z,32.29
2023-04-17T01:40:40.948Z,32.49
2023-04-17T01:45:43.502Z,32.94
2023-04-17T01:50:49.698Z,33.60
2023-04-17T01:55:52.100Z,34.19
2023-04-17T02:00:55.026Z,34.52
2023-04-17T02:05:57.340Z,34.59
2023-04-17T02:10:59.910Z,34.23
2023-04-17T02:16:02.405Z,34.21
2023-04-17T02:21:04.545Z,34.03
2023-04-17T02:26:06.801Z,34.76
2023-04-17T02:31:13.395Z,34.92
2023-04-17T02:36:19.818Z,35.27
2023-04-17T02:41:22.240Z,35.69
2023-04-17T02:46:25.019Z,36.24
2023-04-17T02:51:27.159Z,36.80
2023-04-17T02:56:29.373Z,37.46
2023-04-17T03:01:31.786Z,37.55
2023-04-17T03:06:34.885Z,37.98
2023-04-17T03:11:38.945Z,37.80
2023-04-17T03:16:45.717Z,37.50
2023-04-17T03:21:51.378Z,38.17
2023-04-17T03:26:53.550Z,37.40
2023-04-17T03:31:56.986Z,37.59
2023-04-17T03:36:59.338Z,37.68
2023-04-17T03:42:01.990Z,37.63
2023-04-17T03:47:04.334Z,37.60
2023-04-17T03:52:06.860Z,37.73
2023-04-17T03:57:09.679Z,38.25
2023-04-17T04:02:11.968Z,38.79
2023-04-17T04:07:14.941Z,38.82
2023-04-17T04:12:19.412Z,38.86
2023-04-17T04:17:32.622Z,39.05
2023-04-17T04:22:37.948Z,39.16
2023-04-17T04:27:47.317Z,39.26
2023-04-17T04:32:49.614Z,39.18
2023-04-17T04:37:55.160Z,39.14
2023-04-17T04:42:58.656Z,39.23
2023-04-17T04:48:08.197Z,39.23
2023-04-17T04:53:10.640Z,39.53
2023-04-17T04:58:25.472Z,39.58
2023-04-17T05:03:31.918Z,39.49
2023-04-17T05:08:36.108Z,39.39
2023-04-17T05:13:45.565Z,39.55
2023-04-17T05:18:53.289Z,39.70
2023-04-17T05:24:06.144Z,40.38
2023-04-17T05:29:09.231Z,40.68
2023-04-17T05:34:11.771Z,40.44
2023-04-17T05:39:13.995Z,40.46
2023-04-17T05:44:16.197Z,40.70
2023-04-17T05:49:18.594Z,40.40
2023-04-17T05:54:20.797Z,40.19
2023-04-17T05:59:24.422Z,40.13
2023-04-17T06:04:26.998Z,39.92
2023-04-17T06:09:29.417Z,39.20
2023-04-17T06:14:31.864Z,39.66
2023-04-17T06:19:38.134Z,39.51
2023-04-17T06:24:42.202Z,39.31
2023-04-17T06:29:44.349Z,39.40
2023-04-17T06:40:01.325Z,38.91
2023-04-17T06:45:04.755Z,38.52
2023-04-17T06:50:14.383Z,39.21
2023-04-17T06:55:17.731Z,38.66
2023-04-17T07:00:20.782Z,38.73
2023-04-17T07:05:23.046Z,38.43
2023-04-17T07:10:25.069Z,39.11
2023-04-17T07:15:31.428Z,38.71
2023-04-17T07:20:33.647Z,36.81
2023-04-17T07:25:36.073Z,36.51
2023-04-17T07:30:38.224Z,36.34
2023-04-17T07:35:43.372Z,35.13
2023-04-17T07:40:45.687Z,34.46
2023-04-17T07:45:49.081Z,33.60
2023-04-17T07:50:51.506Z,31.64
2023-04-17T07:55:54.830Z,31.63
2023-04-17T08:00:57.494Z,31.03
2023-04-17T08:05:59.961Z,30.44
2023-04-17T08:11:02.431Z,29.55
2023-04-17T08:16:06.664Z,28.87
2023-04-17T08:21:11.503Z,28.91
2023-04-17T08:26:14.422Z,27.83
2023-04-17T08:31:16.587Z,27.55
2023-04-17T08:36:18.767Z,29.29
2023-04-17T08:41:23.122Z,26.62
2023-04-17T08:46:25.623Z,26.20
2023-04-17T08:51:28.205Z,24.67
2023-04-17T08:56:30.324Z,23.77
2023-04-17T09:01:35.025Z,23.66
2023-04-17T09:06:54.647Z,21.90
2023-04-17T09:12:17.307Z,22.28
2023-04-17T09:17:21.753Z,20.37
2023-04-17T09:22:23.892Z,20.02
2023-04-17T09:27:27.543Z,19.38
2023-04-17T09:32:31.503Z,19.65
2023-04-17T09:37:56.095Z,18.95
2023-04-17T09:43:02.744Z,18.84
2023-04-17T09:48:10.968Z,18.83
2023-04-17T09:53:17.197Z,18.20
2023-04-17T09:58:21.846Z,18.08
2023-04-17T10:03:24.297Z,18.47
2023-04-17T10:08:26.600Z,18.04
2023-04-17T10:13:31.868Z,18.09
2023-04-17T10:18:34.494Z,18.51
2023-04-17T10:23:37.232Z,17.67
2023-04-17T10:28:49.505Z,17.45
2023-04-17T10:33:53.102Z,17.78
2023-04-17T10:39:12.495Z,18.19
2023-04-17T10:44:15.293Z,17.23
2023-04-17T10:49:17.336Z,17.15
2023-04-17T10:54:19.588Z,16.15
2023-04-17T10:59:23.005Z,17.08
2023-04-17T11:04:31.036Z,16.74
2023-04-17T11:09:33.672Z,16.33
2023-04-17T11:14:35.602Z,17.42
2023-04-17T11:19:37.658Z,16.25
2023-04-17T11:24:39.790Z,16.99
2023-04-17T11:29:41.834Z,16.58
2023-04-17T11:34:44.152Z,16.42
2023-04-17T11:39:46.630Z,18.04
2023-04-17T11:44:48.697Z,16.68
2023-04-17T11:49:51.908Z,16.70
2023-04-17T11:54:58.296Z,17.88
2023-04-17T12:00:00.368Z,18.59
2023-04-17T12:05:15.982Z,18.13
2023-04-17T12:10:43.238Z,18.60
2023-04-17T12:15:45.965Z,18.91
2023-04-17T12:20:48.985Z,19.71
2023-04-17T12:25:51.208Z,18.51
2023-04-17T12:30:53.357Z,18.91
2023-04-17T12:35:55.707Z,20.48
2023-04-17T12:40:58.153Z,19.29
2023-04-17T12:46:00.318Z,18.95
2023-04-17T12:51:02.575Z,20.15
2023-04-17T12:56:04.907Z,18.83
2023-04-17T13:01:07.602Z,20.54
2023-04-17T13:06:13.962Z,18.90
2023-04-17T13:11:18.575Z,20.41
2023-04-17T13:16:20.740Z,18.76
2023-04-17T13:21:22.809Z,18.94
2023-04-17T13:26:24.800Z,18.60
2023-04-17T13:31:28.003Z,18.70
2023-04-17T13:36:31.662Z,19.57
2023-04-17T13:41:33.466Z,20.88
2023-04-17T13:46:36.044Z,20.32
2023-04-17T13:51:38.638Z,19.42
2023-04-17T13:56:42.489Z,19.94
2023-04-17T14:01:44.782Z,19.85
2023-04-17T14:06:51.154Z,19.92
2023-04-17T14:11:57.251Z,19.89
2023-04-17T14:16:59.259Z,21.23
2023-04-17T14:22:01.221Z,20.57
2023-04-17T14:27:03.958Z,19.74
2023-04-17T14:32:08.592Z,20.35
2023-04-17T14:37:10.764Z,20.08
2023-04-17T14:42:16.047Z,20.00
2023-04-17T14:47:18.606Z,20.40
2023-04-17T14:52:20.674Z,19.71
2023-04-17T14:57:24.645Z,20.15
2023-04-17T15:02:28.201Z,20.70
2023-04-17T15:07:31.268Z,19.72
2023-04-17T15:12:33.647Z,19.46
2023-04-17T15:17:37.632Z,19.70
2023-04-17T15:22:39.712Z,20.34
2023-04-17T15:27:42.054Z,19.75
2023-04-17T15:32:44.889Z,19.44
2023-04-17T15:37:48.685Z,19.57
2023-04-17T15:42:51.107Z,20.00
2023-04-17T15:47:53.871Z,20.33
2023-04-17T15:52:56.571Z,19.98
2023-04-17T15:57:59.855Z,20.18
2023-04-17T16:03:02.997Z,20.91
2023-04-17T16:08:05.258Z,19.97
2023-04-17T16:13:07.434Z,19.19
2023-04-17T16:18:09.449Z,20.28
2023-04-17T16:23:11.798Z,20.41
2023-04-17T16:28:13.762Z,20.65
2023-04-17T16:33:16.134Z,20.17
2023-04-17T16:38:18.726Z,20.92
2023-04-17T16:43:21.327Z,21.15
2023-04-17T16:48:27.796Z,20.48
2023-04-17T16:53:29.753Z,20.53
2023-04-17T16:58:31.757Z,21.66
2023-04-17T17:03:33.927Z,21.16
2023-04-17T17:08:36.118Z,21.76
2023-04-17T17:13:40.346Z,21.12
2023-04-17T17:18:43.296Z,22.24
2023-04-17T17:23:49.543Z,22.80
2023-04-17T17:28:53.532Z,22.19
2023-04-17T17:33:56.209Z,22.60
2023-04-17T17:39:04.138Z,22.38
2023-04-17T17:44:06.209Z,22.62
2023-04-17T17:49:10.249Z,23.66
2023-04-17T17:54:12.397Z,23.38
2023-04-17T17:59:14.540Z,23.37
2023-04-17T18:04:17.177Z,23.59
2023-04-17T18:09:19.985Z,24.04
2023-04-17T18:14:22.024Z,24.31
2023-04-17T18:19:24.272Z,25.21
2023-04-17T18:24:30.952Z,24.80
2023-04-17T18:29:33.621Z,25.22
2023-04-17T18:34:35.736Z,24.95
2023-04-17T18:39:37.728Z,25.18
2023-04-17T18:44:39.667Z,25.33
2023-04-17T18:49:41.803Z,25.04
2023-04-17T18:54:43.775Z,24.89
2023-04-17T18:59:46.128Z,24.69
2023-04-17T19:04:48.406Z,24.49
2023-04-17T19:09:50.758Z,24.44
2023-04-17T19:14:52.751Z,24.58
2023-04-17T19:19:54.927Z,24.60
2023-04-17T19:24:57.367Z,23.97
2023-04-17T19:30:01.910Z,23.96
2023-04-17T19:35:04.170Z,23.97
2023-04-17T19:40:21.514Z,24.33
2023-04-17T19:45:28.622Z,23.71
2023-04-17T19:50:30.892Z,23.87
2023-04-17T19:55:32.997Z,23.99
2023-04-17T20:00:35.152Z,23.54
2023-04-17T20:05:38.028Z,23.72
2023-04-17T20:10:40.571Z,23.99
2023-04-17T20:15:43.113Z,23.62
2023-04-17T20:20:45.740Z,23.71
2023-04-17T20:25:48.196Z,22.54
2023-04-17T20:30:50.891Z,22.11
2023-04-17T20:35:53.263Z,21.56
2023-04-17T20:40:55.570Z,21.73
2023-04-17T20:45:59.251Z,22.36
2023-04-17T20:51:06.022Z,22.34
2023-04-17T20:56:08.128Z,22.53
2023-04-17T21:01:10.280Z,22.65
2023-04-17T21:06:12.759Z,22.88
2023-04-17T21:11:18.940Z,23.29
2023-04-17T21:16:21.493Z,23.23
2023-04-17T21:21:26.983Z,23.71
2023-04-17T21:26:29.732Z,23.93
2023-04-17T21:31:31.841Z,24.12
2023-04-17T21:36:34.253Z,24.34
2023-04-17T21:41:37.213Z,25.04
2023-04-17T21:46:45.255Z,24.91
2023-04-17T21:51:47.257Z,24.43
2023-04-17T21:56:49.465Z,25.34
2023-04-17T22:01:51.724Z,25.12
2023-04-17T22:06:54.676Z,25.81
2023-04-17T22:11:57.663Z,26.72
2023-04-17T22:17:00.026Z,26.47
2023-04-17T22:22:39.277Z,25.79
2023-04-17T22:28:00.243Z,25.23
2023-04-17T22:33:21.356Z,25.46
2023-04-17T22:38:42.129Z,25.91
2023-04-17T22:43:50.902Z,26.03
2023-04-17T22:48:57.999Z,26.56
2023-04-17T22:54:08.539Z,27.69
2023-04-17T22:59:17.724Z,28.36
2023-04-17T23:04:21.205Z,28.94
2023-04-17T23:09:23.368Z,29.91
2023-04-17T23:14:28.668Z,30.58
2023-04-17T23:19:30.680Z,31.31
2023-04-17T23:24:35.098Z,31.79
2023-04-17T23:29:37.415Z,32.83
2023-04-17T23:34:39.652Z,33.03
2023-04-17T23:39:42.905Z,33.56
2023-04-17T23:44:44.976Z,34.74
2023-04-17T23:49:47.644Z,34.86
2023-04-17T23:54:49.828Z,35.75
2023-04-17T23:59:52.245Z,36.45
